Briefing drone pour Tournon-sur-rhone

Rechercher une autre localisation

Conditions de vol :


Nous sommes le : Lundi 26 février 2024
Il est 11:31 UTC (12:31 LT)

Lever de soleil : 05:57 UTC (06:57 LT)
Coucher de soleil : 17:49 UTC (18:49 LT)

Météo

L'essentiel des conditions de vol

VIGILANCE MÉTÉO FRANCE - Ardèche (07)
Pas de vigilances particulieres
CARTES DES FRONTS
METAR de LFLU
LFLU 261100Z AUTO 21016KT 9999 FEW031 13/08 Q0998

Date d'émission: 26/02/2024
Heure d'émission: 11:00 UTC
Vent: 210° pour 16 KT (30 km/h)
Visibilité horizontale: > 10 km
Plafond :
- Peu de nuages à 3100ft (945m)
Température: 13 °C
Point de rosée: 8 °C
Humidité: 72%
Pression (QNH): 998 hPa
Prévision 24h pour Valence (10 km)
Vent : 16° pour 6 KT (21 km/h)
Temperature Maxi: 7 °C
Temperature Min: 7 °C
Humidité : 90%
Condition : Légère pluie


WEBCAM POUR TOURNON-SUR-RHONE

Réglementation

Voler en sécurité

CARTES AERONAUTIQUE 1/500.000
CARTE AZBA (Reseau basse altitude)
CARTES VAC (LFLU)
SUP AIP




Chargement des AIP...
NOTAM (TOURNON-SUR-RHONE + Terrain à proximité / FIR )




Chargement des NOTAMS...
CONTACT PREFECTURE 07
Ardèche (07) : [email protected]


Avertissement : Les données mises à disposition sont indicatives. Oxygène Drone ne pourra être tenu responsable de dégâts causés aux biens et aux personnes.